Latest Weather Observations for Mount Buller

IDV60801

Issued at 6:35 am EST Tuesday 2 September 2014 (issued every 30 minutes, with the page automatically refreshed every 10 minutes)

About weather observations | Map of weather stations | Latest weather observations for VIC | Other Formats
Station Details ID: 083024 Name: MOUNT BULLER Lat: -37.15 Lon: 146.44 Height: 1707.0 m
Data from the previous 72 hours. | See also: Recent months at Mount Buller
Date/Time
EST
Temp
°C
App
Temp
°C
Dew
Point
Rel
Hum
%
Delta-T
°C
Wind Press
QNH
hPa
Press
MSL
hPa
Rain
since 9 am
mm
Dir
 
Spd
km/h
Gust
km/h
Spd
kts
Gust
kts
02/06:30am -2.2 - -2.5 98 0.0 - - - - - - - -
02/06:00am -2.2 - -2.5 98 0.0 - - - - - - - -
02/05:30am -2.3 - -2.7 97 0.0 - - - - - - - -
02/05:00am -2.1 - -2.4 98 0.0 - - - - - - - -
02/04:30am -1.7 - -2.0 98 0.0 - - - - - - - -
02/04:00am -1.6 - -1.9 98 0.0 - - - - - - - -
02/03:30am -1.6 - -1.9 98 0.0 - - - - - - - -
02/03:00am -1.4 - -1.7 98 0.0 - - - - - - - 4.0
02/02:30am -1.5 - -1.8 98 0.0 - - - - - - - -
02/02:00am -1.5 - -1.8 98 0.0 - - - - - - - -
02/01:30am -1.5 - -1.8 98 0.0 - - - - - - - -
02/01:00am -1.6 - -1.9 98 0.0 - - - - - - - -
02/12:30am -1.7 - -2.0 98 0.0 - - - - - - - -
02/12:00am -1.6 - -1.9 98 0.0 - - - - - - - -
 
Date/Time
EST
Temp
°C
App
Temp
°C
Dew
Point
Rel
Hum
%
Delta-T
°C
Wind Press
QNH
hPa
Press
MSL
hPa
Rain
since 9 am
mm
Dir
 
Spd
km/h
Gust
km/h
Spd
kts
Gust
kts
01/11:30pm -1.3 - -1.6 98 0.0 - - - - - - - -
01/11:00pm -1.3 - -1.6 98 0.0 - - - - - - - -
01/10:30pm -1.3 - -1.4 99 0.0 - - - - - - - -
01/10:00pm -1.3 - -1.4 99 0.0 - - - - - - - -
01/09:30pm -1.0 - -1.1 99 0.0 - - - - - - - -
01/09:00pm -1.0 - -1.1 99 0.0 - - - - - - - 16.0
01/08:30pm -0.2 - -0.2 100 0.0 - - - - - - - -
01/08:00pm -0.4 - -0.4 100 0.0 - - - - - - - -
01/07:30pm -0.3 - -0.3 100 0.0 - - - - - - - -
01/07:00pm 0.0 - -0.1 99 0.0 - - - - - - - -
01/06:30pm -0.1 - -0.2 99 0.0 - - - - - - - -
01/06:00pm -0.1 - -0.2 99 0.0 - - - - - - - -
01/05:30pm 0.2 - 0.1 99 0.0 - - - - - - - -
01/05:00pm 0.5 - 0.4 99 0.0 - - - - - - - -
01/04:30pm 0.7 - 0.6 99 0.0 - - - - - - - -
01/04:00pm 1.1 - 1.0 99 0.0 - - - - - - - -
01/03:30pm 0.8 - 0.7 99 0.0 - - - - - - - -
01/03:00pm 0.6 - 0.5 99 0.0 - - - - - - - 0.6
01/02:30pm 0.8 - 0.5 98 0.1 - - - - - - - -
01/02:00pm 2.2 - -0.1 85 1.0 - - - - - - - -
01/01:30pm 3.2 - -0.8 75 1.6 - - - - - - - -
01/01:00pm 3.3 - -0.5 76 1.6 - - - - - - - -
01/12:30pm 3.1 - 0.0 80 1.3 - - - - - - - -
01/12:00pm 3.7 - -0.5 74 1.7 - - - - - - - -
01/11:30am 3.6 - -0.8 73 1.8 - - - - - - - -
01/11:00am 4.2 - -1.2 68 2.2 - - - - - - - -
01/10:30am 4.5 - -1.3 66 2.4 - - - - - - - -
01/10:00am 4.3 - -1.1 68 2.2 - - - - - - - -
01/09:30am 4.5 - -1.3 66 2.4 - - - - - - - -
01/09:00am 3.9 - -1.1 70 2.1 - - - - - - - 0.0
01/08:30am 4.0 - -0.8 71 2.0 - - - - - - - -
01/08:00am 3.3 - -0.5 76 1.6 - - - - - - - -
01/07:30am 3.4 - -0.2 77 1.5 - - - - - - - -
01/07:00am 2.8 - 0.0 82 1.2 - - - - - - - -
01/06:30am 3.3 - -0.3 77 1.5 - - - - - - - -
01/06:00am 3.0 - 0.1 81 1.2 - - - - - - - -
01/05:30am 2.8 - 0.4 84 1.0 - - - - - - - -
01/05:00am 2.6 - 0.2 84 1.0 - - - - - - - -
01/04:30am 2.6 - 0.0 83 1.1 - - - - - - - -
01/04:00am 2.7 - 0.1 83 1.1 - - - - - - - -
01/03:30am 2.8 - -0.1 81 1.2 - - - - - - - -
01/03:00am 3.0 - -0.3 79 1.4 - - - - - - - 0.0
01/02:30am 2.7 - -0.2 81 1.2 - - - - - - - -
01/02:00am 3.0 - -0.3 79 1.4 - - - - - - - -
01/01:30am 3.0 - -0.1 80 1.3 - - - - - - - -
01/01:00am 3.4 - -0.2 77 1.5 - - - - - - - -
01/12:30am 3.8 - -0.2 75 1.7 - - - - - - - -
01/12:00am 4.3 - -0.3 72 1.9 - - - - - - - -
 
Date/Time
EST
Temp
°C
App
Temp
°C
Dew
Point
Rel
Hum
%
Delta-T
°C
Wind Press
QNH
hPa
Press
MSL
hPa
Rain
since 9 am
mm
Dir
 
Spd
km/h
Gust
km/h
Spd
kts
Gust
kts
31/11:30pm 4.0 - -0.6 72 1.9 - - - - - - - -
31/11:00pm 3.9 - -0.5 73 1.8 - - - - - - - -
31/10:30pm 3.8 - -0.4 74 1.8 - - - - - - - -
31/10:00pm 4.1 - -0.5 72 1.9 - - - - - - - -
31/09:30pm 3.7 - -0.1 76 1.6 - - - - - - - -
31/09:00pm 3.6 - -0.2 76 1.6 - - - - - - - 0.0
31/08:30pm 3.1 - 0.3 82 1.2 - - - - - - - -
31/08:00pm 3.0 - 0.6 84 1.0 - - - - - - - -
31/07:30pm 2.8 - 1.3 90 0.6 - - - - - - - -
31/07:00pm 2.9 - 1.7 92 0.5 - - - - - - - -
31/06:30pm 3.0 - 2.4 96 0.3 - - - - - - - -
31/06:00pm 3.3 - 2.7 96 0.3 - - - - - - - -
31/05:30pm 3.9 - 2.3 89 0.7 - - - - - - - -
31/05:00pm 4.2 - 2.6 89 0.7 - - - - - - - -
31/04:30pm 4.8 - 2.0 82 1.3 - - - - - - - -
31/04:00pm 5.8 - 2.6 80 1.5 - - - - - - - -
31/03:30pm 4.6 - 2.1 84 1.1 - - - - - - - -
31/03:00pm 5.7 - 2.5 80 1.5 - - - - - - - 0.0
31/02:30pm 6.4 - 2.9 78 1.6 - - - - - - - -
31/02:00pm 6.1 - 2.4 77 1.7 - - - - - - - -
31/01:30pm 5.5 - 2.2 79 1.5 - - - - - - - -
31/01:00pm 5.0 - 2.4 83 1.2 - - - - - - - -
31/12:30pm 5.2 - 1.1 75 1.8 - - - - - - - -
31/12:00pm 5.5 - 2.0 78 1.6 - - - - - - - -
31/11:30am 5.2 - 1.5 77 1.6 - - - - - - - -
31/11:00am 5.0 - 0.6 73 1.9 - - - - - - - -
31/10:30am 4.8 - 0.8 75 1.7 - - - - - - - -
31/10:00am 4.3 - 1.0 79 1.4 - - - - - - - -
31/09:30am 4.2 - 1.1 80 1.3 - - - - - - - -
31/09:00am 4.2 - 1.4 82 1.2 - - - - - - - 0.0
31/08:30am 3.2 - 1.3 87 0.8 - - - - - - - -
31/08:00am 3.1 - 0.8 85 1.0 - - - - - - - -
31/07:30am 2.5 - 0.7 88 0.8 - - - - - - - -
31/07:00am 2.0 - 0.7 91 0.5 - - - - - - - -
31/06:30am 2.1 - 0.8 91 0.6 - - - - - - - -
31/06:00am 2.0 - 1.3 95 0.3 - - - - - - - -
31/05:30am 2.0 - 1.4 96 0.3 - - - - - - - -
31/05:00am 2.2 - -0.4 83 1.1 - - - - - - - -
31/04:30am 2.5 - -1.1 77 1.5 - - - - - - - -
31/04:00am 2.3 - -3.0 68 2.0 - - - - - - - -
31/03:30am 1.3 - -2.3 77 1.5 - - - - - - - -
31/03:00am 1.7 - -2.8 72 1.8 - - - - - - - 0.0
31/02:30am 1.5 - -4.8 63 2.4 - - - - - - - -
31/02:00am 2.2 - -5.4 57 2.9 - - - - - - - -
31/01:30am 1.8 - -4.9 61 2.5 - - - - - - - -
31/01:00am 1.9 - -4.6 62 2.5 - - - - - - - -
31/12:30am 2.1 - -4.8 60 2.7 - - - - - - - -
31/12:00am 1.8 - -5.3 59 2.7 - - - - - - - -
 
Date/Time
EST
Temp
°C
App
Temp
°C
Dew
Point
Rel
Hum
%
Delta-T
°C
Wind Press
QNH
hPa
Press
MSL
hPa
Rain
since 9 am
mm
Dir
 
Spd
km/h
Gust
km/h
Spd
kts
Gust
kts
30/11:30pm 1.3 - -5.6 60 2.5 - - - - - - - -
30/11:00pm 1.4 - -3.8 68 2.0 - - - - - - - -
30/10:30pm 1.9 - -5.2 59 2.7 - - - - - - - -
30/10:00pm 1.7 - -5.2 60 2.6 - - - - - - - -
30/09:30pm 2.1 - -5.1 59 2.7 - - - - - - - -
30/09:00pm 2.1 - -3.6 66 2.3 - - - - - - - 0.0
30/08:30pm 2.8 - -2.9 66 2.2 - - - - - - - -
30/08:00pm 2.7 - -3.0 66 2.2 - - - - - - - -
30/07:30pm 3.4 - -3.2 62 2.6 - - - - - - - -
30/07:00pm 3.2 - -5.9 51 3.5 - - - - - - - -
30/06:30pm 2.8 - -4.4 59 2.7 - - - - - - - -
30/06:00pm 3.4 - -2.7 64 2.4 - - - - - - - -
30/05:30pm 3.9 - 0.2 77 1.6 - - - - - - - -
30/05:00pm 4.8 - 0.8 75 1.7 - - - - - - - -
30/04:30pm 4.9 - 1.6 79 1.5 - - - - - - - -
30/04:00pm 5.1 - 2.3 82 1.3 - - - - - - - -
30/03:30pm 5.5 - 1.8 77 1.7 - - - - - - - -
30/03:00pm 7.1 - 1.8 69 2.4 - - - - - - - 0.0
30/02:30pm 7.0 - 0.7 64 2.8 - - - - - - - -
30/02:00pm 6.7 - -0.5 60 3.1 - - - - - - - -
30/01:30pm 7.4 - -0.8 56 3.5 - - - - - - - -
30/01:00pm 7.3 - -1.1 55 3.6 - - - - - - - -
30/12:30pm 7.6 - -1.6 52 3.9 - - - - - - - -
30/12:00pm 7.7 - -2.9 47 4.3 - - - - - - - -
30/11:30am 6.2 - -3.4 50 3.8 - - - - - - - -
30/11:00am 5.9 - -5.1 45 4.2 - - - - - - - -
30/10:30am 7.2 - -5.1 41 4.7 - - - - - - - -
30/10:00am 6.9 - -4.2 45 4.4 - - - - - - - -
30/09:30am 6.9 - -4.5 44 4.5 - - - - - - - -
30/09:00am 6.6 - -5.7 41 4.6 - - - - - - - 0.0
30/08:30am 5.3 - -5.9 44 4.1 - - - - - - - -
30/08:00am 5.1 - -6.1 44 4.1 - - - - - - - -
30/07:30am 5.0 - -6.8 42 4.3 - - - - - - - -
30/07:00am 3.6 - -7.2 45 4.0 - - - - - - - -

Other Formats:

Comma delimited format used in spreadsheet applications
http://www.bom.gov.au/fwo/IDV60801/IDV60801.94894.axf

JavaScript Object Notation format (JSON) in row-major order
http://www.bom.gov.au/fwo/IDV60801/IDV60801.94894.json